JST416 YSSY-YBCG
Flight info
| Callsign | JST416 |
|---|---|
| Flight time | 0h 56m |
| Altitude | 39000 |
| Route | SY3/25 TESAT H252 OLSEM Y193 BANDA Y43 GREAV DCT GOMOL |
| Aircraft | A320/M-SDE3FGHIRWY/LB1 |
Departure
| Time | 2026-05-07 06:45 |
|---|---|
| Airport | Sydney Kingsford Smith International Airport (YSSY) |
Arrival
| Time | 2026-05-07 07:41 |
|---|---|
| Airport | Gold Coast Airport (YBCG) |
| Time | Latitude | Longitude | Altitude | Speed | Heading |
|---|---|---|---|---|---|
| 2026-05-07 06:24 | -33.93524 | 151.17764 | 30 ft | 0 kts | 279° |
| 2026-05-07 06:35 | -33.93525 | 151.17771 | 30 ft | 3 kts | 278° |
| 2026-05-07 06:35 | -33.93527 | 151.17798 | 30 ft | 3 kts | 266° |
| 2026-05-07 06:35 | -33.93523 | 151.17823 | 30 ft | 3 kts | 241° |
| 2026-05-07 06:35 | -33.93510 | 151.17840 | 29 ft | 3 kts | 193° |
| 2026-05-07 06:36 | -33.93503 | 151.17842 | 30 ft | 0 kts | 190° |
| 2026-05-07 06:38 | -33.93518 | 151.17839 | 30 ft | 11 kts | 190° |
| 2026-05-07 06:38 | -33.93673 | 151.17804 | 30 ft | 27 kts | 192° |
| 2026-05-07 06:38 | -33.93823 | 151.17772 | 30 ft | 12 kts | 141° |
| 2026-05-07 06:38 | -33.93816 | 151.17878 | 30 ft | 15 kts | 75° |
| 2026-05-07 06:39 | -33.93783 | 151.18016 | 30 ft | 23 kts | 73° |
| 2026-05-07 06:39 | -33.93737 | 151.18213 | 30 ft | 26 kts | 74° |
| 2026-05-07 06:39 | -33.93686 | 151.18428 | 30 ft | 28 kts | 74° |
| 2026-05-07 06:39 | -33.93632 | 151.18658 | 30 ft | 24 kts | 74° |
| 2026-05-07 06:40 | -33.93594 | 151.18821 | 30 ft | 17 kts | 79° |
| 2026-05-07 06:40 | -33.93608 | 151.18904 | 29 ft | 5 kts | 127° |
| 2026-05-07 06:40 | -33.93623 | 151.18922 | 29 ft | 0 kts | 139° |
| 2026-05-07 06:41 | -33.93656 | 151.18946 | 28 ft | 8 kts | 161° |
| 2026-05-07 06:41 | -33.93669 | 151.18950 | 27 ft | 0 kts | 166° |
| 2026-05-07 06:43 | -33.93670 | 151.18950 | 27 ft | 2 kts | 166° |
| 2026-05-07 06:43 | -33.93761 | 151.18947 | 26 ft | 16 kts | 222° |
| 2026-05-07 06:43 | -33.93770 | 151.18921 | 25 ft | 0 kts | 256° |
| 2026-05-07 06:44 | -33.93815 | 151.18724 | 27 ft | 60 kts | 254° |
| 2026-05-07 06:45 | -33.93987 | 151.17999 | 29 ft | 118 kts | 253° |
| 2026-05-07 06:45 | -33.94222 | 151.16910 | 328 ft | 138 kts | 263° |
| 2026-05-07 06:45 | -33.93940 | 151.15804 | 973 ft | 151 kts | 305° |
| 2026-05-07 06:45 | -33.92971 | 151.15149 | 1620 ft | 172 kts | 334° |
| 2026-05-07 06:46 | -33.91724 | 151.14845 | 2039 ft | 194 kts | 341° |
| 2026-05-07 06:46 | -33.90306 | 151.14568 | 2373 ft | 219 kts | 342° |
| 2026-05-07 06:46 | -33.88706 | 151.14292 | 2812 ft | 248 kts | 351° |
| 2026-05-07 06:46 | -33.86906 | 151.14753 | 3384 ft | 280 kts | 15° |
| 2026-05-07 06:47 | -33.85062 | 151.15632 | 4251 ft | 289 kts | 17° |
| 2026-05-07 06:47 | -33.83174 | 151.16557 | 5175 ft | 297 kts | 18° |
| 2026-05-07 06:47 | -33.81244 | 151.17507 | 6130 ft | 302 kts | 19° |
| 2026-05-07 06:47 | -33.79283 | 151.18468 | 7062 ft | 307 kts | 20° |
| 2026-05-07 06:48 | -33.77291 | 151.19439 | 7962 ft | 311 kts | 20° |
| 2026-05-07 06:48 | -33.75266 | 151.20424 | 8885 ft | 316 kts | 20° |
| 2026-05-07 06:48 | -33.73208 | 151.21417 | 9787 ft | 321 kts | 20° |
| 2026-05-07 06:48 | -33.71094 | 151.22431 | 10336 ft | 338 kts | 20° |
| 2026-05-07 06:49 | -33.68837 | 151.23509 | 10674 ft | 358 kts | 19° |
| 2026-05-07 06:49 | -33.66498 | 151.24626 | 11363 ft | 364 kts | 19° |
| 2026-05-07 06:49 | -33.64142 | 151.25754 | 12219 ft | 366 kts | 18° |
| 2026-05-07 06:49 | -33.61772 | 151.26891 | 13049 ft | 368 kts | 18° |
| 2026-05-07 06:50 | -33.59387 | 151.28033 | 13841 ft | 371 kts | 18° |
| 2026-05-07 06:50 | -33.57008 | 151.29168 | 14540 ft | 374 kts | 17° |
| 2026-05-07 06:50 | -33.54579 | 151.30330 | 15215 ft | 378 kts | 17° |
| 2026-05-07 06:50 | -33.52124 | 151.31502 | 15884 ft | 381 kts | 17° |
| 2026-05-07 06:51 | -33.49645 | 151.32684 | 16569 ft | 385 kts | 17° |
| 2026-05-07 06:51 | -33.47136 | 151.33878 | 17248 ft | 389 kts | 16° |
| 2026-05-07 06:51 | -33.44613 | 151.35076 | 17886 ft | 392 kts | 15° |
| 2026-05-07 06:51 | -33.42063 | 151.36291 | 18533 ft | 396 kts | 14° |
| 2026-05-07 06:52 | -33.39491 | 151.37518 | 19135 ft | 399 kts | 14° |
| 2026-05-07 06:52 | -33.36896 | 151.38754 | 19746 ft | 403 kts | 14° |
| 2026-05-07 06:52 | -33.34283 | 151.39998 | 20369 ft | 406 kts | 14° |
| 2026-05-07 06:52 | -33.31645 | 151.41252 | 20956 ft | 409 kts | 14° |
| 2026-05-07 06:53 | -33.28993 | 151.42511 | 21548 ft | 412 kts | 14° |
| 2026-05-07 06:53 | -33.26313 | 151.43782 | 22120 ft | 415 kts | 13° |
| 2026-05-07 06:53 | -33.23615 | 151.45060 | 22643 ft | 419 kts | 12° |
| 2026-05-07 06:53 | -33.20892 | 151.46348 | 23219 ft | 422 kts | 12° |
| 2026-05-07 06:54 | -33.18147 | 151.47645 | 23769 ft | 426 kts | 12° |
| 2026-05-07 06:54 | -33.15385 | 151.48953 | 24232 ft | 429 kts | 12° |
| 2026-05-07 06:54 | -33.12602 | 151.50272 | 24683 ft | 432 kts | 12° |
| 2026-05-07 06:54 | -33.09796 | 151.51605 | 25129 ft | 435 kts | 12° |
| 2026-05-07 06:55 | -33.06977 | 151.52940 | 25571 ft | 438 kts | 12° |
| 2026-05-07 06:55 | -33.04170 | 151.54264 | 25919 ft | 440 kts | 11° |
| 2026-05-07 06:55 | -33.01316 | 151.55608 | 26402 ft | 442 kts | 11° |
| 2026-05-07 06:55 | -32.98450 | 151.56954 | 26859 ft | 443 kts | 11° |
| 2026-05-07 06:56 | -32.95570 | 151.58307 | 27292 ft | 445 kts | 11° |
| 2026-05-07 06:56 | -32.92682 | 151.59666 | 27706 ft | 448 kts | 11° |
| 2026-05-07 06:56 | -32.89775 | 151.61033 | 28134 ft | 451 kts | 11° |
| 2026-05-07 06:56 | -32.86853 | 151.62406 | 28542 ft | 453 kts | 11° |
| 2026-05-07 06:57 | -32.83917 | 151.63789 | 28971 ft | 455 kts | 11° |
| 2026-05-07 06:57 | -32.80982 | 151.65178 | 29508 ft | 451 kts | 10° |
| 2026-05-07 06:57 | -32.78071 | 151.66555 | 30042 ft | 451 kts | 10° |
| 2026-05-07 06:57 | -32.75146 | 151.67930 | 30414 ft | 452 kts | 10° |
| 2026-05-07 06:58 | -32.72218 | 151.69300 | 30730 ft | 454 kts | 9° |
| 2026-05-07 06:58 | -32.69264 | 151.70672 | 31042 ft | 457 kts | 9° |
| 2026-05-07 06:58 | -32.66286 | 151.72054 | 31339 ft | 460 kts | 9° |
| 2026-05-07 06:58 | -32.63297 | 151.73448 | 31639 ft | 463 kts | 9° |
| 2026-05-07 06:59 | -32.60292 | 151.74853 | 31929 ft | 465 kts | 9° |
| 2026-05-07 06:59 | -32.57282 | 151.76265 | 32329 ft | 465 kts | 9° |
| 2026-05-07 06:59 | -32.54312 | 151.77659 | 32747 ft | 465 kts | 8° |
| 2026-05-07 06:59 | -32.51297 | 151.79072 | 33171 ft | 465 kts | 8° |
| 2026-05-07 07:00 | -32.48290 | 151.80478 | 33593 ft | 465 kts | 8° |
| 2026-05-07 07:00 | -32.45281 | 151.81880 | 34004 ft | 464 kts | 7° |
| 2026-05-07 07:00 | -32.42269 | 151.83280 | 34354 ft | 464 kts | 7° |
| 2026-05-07 07:00 | -32.39263 | 151.84673 | 34695 ft | 463 kts | 7° |
| 2026-05-07 07:01 | -32.36280 | 151.86057 | 35187 ft | 459 kts | 7° |
| 2026-05-07 07:01 | -32.33316 | 151.87433 | 35569 ft | 457 kts | 7° |
| 2026-05-07 07:01 | -32.30352 | 151.88805 | 35899 ft | 457 kts | 8° |
| 2026-05-07 07:01 | -32.27380 | 151.90179 | 36193 ft | 458 kts | 8° |
| 2026-05-07 07:02 | -32.24407 | 151.91552 | 36488 ft | 459 kts | 8° |
| 2026-05-07 07:02 | -32.21429 | 151.92928 | 36762 ft | 460 kts | 8° |
| 2026-05-07 07:02 | -32.18480 | 151.94290 | 36966 ft | 460 kts | 8° |
| 2026-05-07 07:02 | -32.15503 | 151.95667 | 37351 ft | 458 kts | 8° |
| 2026-05-07 07:03 | -32.12543 | 151.97034 | 37695 ft | 457 kts | 8° |
| 2026-05-07 07:03 | -32.09586 | 151.98403 | 37972 ft | 457 kts | 8° |
| 2026-05-07 07:03 | -32.06625 | 151.99774 | 38234 ft | 457 kts | 8° |
| 2026-05-07 07:03 | -32.03663 | 152.01144 | 38489 ft | 458 kts | 8° |
| 2026-05-07 07:04 | -32.00692 | 152.02516 | 38694 ft | 458 kts | 8° |
| 2026-05-07 07:04 | -31.97722 | 152.03880 | 38881 ft | 458 kts | 8° |
| 2026-05-07 07:04 | -31.94750 | 152.05245 | 39012 ft | 457 kts | 7° |
| 2026-05-07 07:04 | -31.91796 | 152.06601 | 39069 ft | 457 kts | 7° |
| 2026-05-07 07:05 | -31.85845 | 152.09312 | 39079 ft | 466 kts | 8° |
| 2026-05-07 07:05 | -31.79743 | 152.12101 | 39076 ft | 472 kts | 8° |
| 2026-05-07 07:06 | -31.73612 | 152.14924 | 39059 ft | 472 kts | 8° |
| 2026-05-07 07:06 | -31.67510 | 152.17737 | 39074 ft | 470 kts | 7° |
| 2026-05-07 07:07 | -31.61429 | 152.20521 | 39076 ft | 467 kts | 7° |
| 2026-05-07 07:07 | -31.55357 | 152.23274 | 39074 ft | 468 kts | 7° |
| 2026-05-07 07:08 | -31.49273 | 152.26035 | 39066 ft | 469 kts | 7° |
| 2026-05-07 07:08 | -31.43233 | 152.28796 | 39077 ft | 469 kts | 7° |
| 2026-05-07 07:09 | -31.37146 | 152.31556 | 39085 ft | 469 kts | 7° |
| 2026-05-07 07:09 | -31.31059 | 152.34303 | 39090 ft | 469 kts | 8° |
| 2026-05-07 07:10 | -31.24985 | 152.37059 | 39085 ft | 468 kts | 7° |
| 2026-05-07 07:10 | -31.18930 | 152.39801 | 39091 ft | 466 kts | 7° |
| 2026-05-07 07:11 | -31.12891 | 152.42530 | 39087 ft | 465 kts | 7° |
| 2026-05-07 07:11 | -31.06853 | 152.45253 | 39043 ft | 464 kts | 7° |
| 2026-05-07 07:12 | -31.00834 | 152.47970 | 39078 ft | 463 kts | 7° |
| 2026-05-07 07:12 | -30.94869 | 152.50647 | 39080 ft | 462 kts | 7° |
| 2026-05-07 07:13 | -30.88881 | 152.53320 | 39082 ft | 460 kts | 6° |
| 2026-05-07 07:13 | -30.82928 | 152.55993 | 39033 ft | 458 kts | 6° |
| 2026-05-07 07:14 | -30.76971 | 152.58684 | 39033 ft | 459 kts | 6° |
| 2026-05-07 07:14 | -30.71015 | 152.61448 | 39042 ft | 461 kts | 7° |
| 2026-05-07 07:15 | -30.65049 | 152.64238 | 39055 ft | 462 kts | 7° |
| 2026-05-07 07:15 | -30.59134 | 152.66993 | 39017 ft | 460 kts | 7° |
| 2026-05-07 07:16 | -30.53187 | 152.69732 | 39037 ft | 460 kts | 7° |
| 2026-05-07 07:16 | -30.47229 | 152.72471 | 39049 ft | 461 kts | 7° |
| 2026-05-07 07:17 | -30.41264 | 152.75223 | 39059 ft | 461 kts | 7° |
| 2026-05-07 07:17 | -30.35302 | 152.77976 | 39056 ft | 461 kts | 7° |
| 2026-05-07 07:18 | -30.29340 | 152.80719 | 39062 ft | 461 kts | 7° |
| 2026-05-07 07:18 | -30.23375 | 152.83451 | 39061 ft | 461 kts | 6° |
| 2026-05-07 07:19 | -30.17400 | 152.86191 | 38777 ft | 462 kts | 6° |
| 2026-05-07 07:19 | -30.14429 | 152.87557 | 37643 ft | 458 kts | 6° |
| 2026-05-07 07:19 | -30.12472 | 152.88456 | 36778 ft | 457 kts | 7° |
| 2026-05-07 07:20 | -30.09516 | 152.89810 | 35845 ft | 453 kts | 7° |
| 2026-05-07 07:20 | -30.06577 | 152.91154 | 35216 ft | 456 kts | 8° |
| 2026-05-07 07:20 | -30.03608 | 152.92496 | 34762 ft | 461 kts | 8° |
| 2026-05-07 07:20 | -30.00619 | 152.93845 | 34232 ft | 462 kts | 8° |
| 2026-05-07 07:21 | -29.97623 | 152.95209 | 33648 ft | 463 kts | 9° |
| 2026-05-07 07:21 | -29.94622 | 152.96581 | 33116 ft | 464 kts | 9° |
| 2026-05-07 07:21 | -29.91615 | 152.97957 | 32565 ft | 466 kts | 9° |
| 2026-05-07 07:21 | -29.88594 | 152.99336 | 32019 ft | 468 kts | 9° |
| 2026-05-07 07:22 | -29.85560 | 153.00717 | 31460 ft | 470 kts | 10° |
| 2026-05-07 07:22 | -29.82517 | 153.02103 | 30902 ft | 471 kts | 10° |
| 2026-05-07 07:22 | -29.79463 | 153.03494 | 30348 ft | 473 kts | 11° |
| 2026-05-07 07:22 | -29.76396 | 153.04891 | 29754 ft | 475 kts | 11° |
| 2026-05-07 07:23 | -29.73316 | 153.06290 | 29217 ft | 477 kts | 11° |
| 2026-05-07 07:23 | -29.70226 | 153.07689 | 28635 ft | 479 kts | 11° |
| 2026-05-07 07:23 | -29.67116 | 153.09094 | 28168 ft | 481 kts | 11° |
| 2026-05-07 07:23 | -29.64036 | 153.10483 | 27653 ft | 483 kts | 11° |
| 2026-05-07 07:24 | -29.60904 | 153.11901 | 27139 ft | 485 kts | 12° |
| 2026-05-07 07:24 | -29.57765 | 153.13326 | 26662 ft | 484 kts | 12° |
| 2026-05-07 07:24 | -29.54643 | 153.14744 | 26124 ft | 481 kts | 12° |
| 2026-05-07 07:24 | -29.51543 | 153.16150 | 25632 ft | 478 kts | 12° |
| 2026-05-07 07:25 | -29.45383 | 153.18938 | 24583 ft | 473 kts | 12° |
| 2026-05-07 07:25 | -29.42329 | 153.20322 | 24053 ft | 470 kts | 12° |
| 2026-05-07 07:25 | -29.39290 | 153.21697 | 23499 ft | 468 kts | 13° |
| 2026-05-07 07:26 | -29.36268 | 153.23062 | 22895 ft | 465 kts | 13° |
| 2026-05-07 07:26 | -29.33264 | 153.24412 | 22358 ft | 462 kts | 13° |
| 2026-05-07 07:26 | -29.30273 | 153.25751 | 21789 ft | 459 kts | 13° |
| 2026-05-07 07:26 | -29.27307 | 153.27078 | 21231 ft | 457 kts | 14° |
| 2026-05-07 07:27 | -29.24353 | 153.28400 | 20681 ft | 454 kts | 14° |
| 2026-05-07 07:27 | -29.21422 | 153.29715 | 20119 ft | 450 kts | 14° |
| 2026-05-07 07:27 | -29.18515 | 153.31022 | 19573 ft | 447 kts | 15° |
| 2026-05-07 07:27 | -29.15626 | 153.32321 | 19017 ft | 445 kts | 15° |
| 2026-05-07 07:28 | -29.12757 | 153.33609 | 18468 ft | 442 kts | 15° |
| 2026-05-07 07:28 | -29.09902 | 153.34887 | 17870 ft | 439 kts | 15° |
| 2026-05-07 07:28 | -29.07066 | 153.36157 | 17332 ft | 436 kts | 15° |
| 2026-05-07 07:28 | -29.04254 | 153.37413 | 16789 ft | 432 kts | 15° |
| 2026-05-07 07:29 | -29.01505 | 153.38640 | 16260 ft | 429 kts | 16° |
| 2026-05-07 07:29 | -28.98731 | 153.39879 | 15707 ft | 425 kts | 16° |
| 2026-05-07 07:29 | -28.95990 | 153.41103 | 15189 ft | 421 kts | 16° |
| 2026-05-07 07:29 | -28.93278 | 153.42316 | 14670 ft | 417 kts | 16° |
| 2026-05-07 07:30 | -28.90585 | 153.43521 | 14159 ft | 414 kts | 17° |
| 2026-05-07 07:30 | -28.87915 | 153.44715 | 13603 ft | 409 kts | 17° |
| 2026-05-07 07:30 | -28.85277 | 153.45893 | 13090 ft | 405 kts | 16° |
| 2026-05-07 07:30 | -28.82663 | 153.47056 | 12586 ft | 402 kts | 17° |
| 2026-05-07 07:31 | -28.80069 | 153.48211 | 12082 ft | 398 kts | 17° |
| 2026-05-07 07:31 | -28.77495 | 153.49354 | 11577 ft | 396 kts | 17° |
| 2026-05-07 07:31 | -28.74943 | 153.50486 | 11079 ft | 392 kts | 17° |
| 2026-05-07 07:31 | -28.72410 | 153.51610 | 10597 ft | 389 kts | 17° |
| 2026-05-07 07:32 | -28.69898 | 153.52727 | 10101 ft | 386 kts | 17° |
| 2026-05-07 07:32 | -28.67412 | 153.53831 | 9586 ft | 383 kts | 17° |
| 2026-05-07 07:32 | -28.64950 | 153.54922 | 9120 ft | 371 kts | 17° |
| 2026-05-07 07:32 | -28.62649 | 153.55950 | 8855 ft | 340 kts | 17° |
| 2026-05-07 07:33 | -28.60544 | 153.56894 | 8702 ft | 312 kts | 17° |
| 2026-05-07 07:33 | -28.58576 | 153.57774 | 8278 ft | 299 kts | 17° |
| 2026-05-07 07:33 | -28.56650 | 153.58625 | 7652 ft | 295 kts | 17° |
| 2026-05-07 07:33 | -28.54744 | 153.59462 | 7091 ft | 290 kts | 17° |
| 2026-05-07 07:34 | -28.52893 | 153.60278 | 6694 ft | 281 kts | 17° |
| 2026-05-07 07:34 | -28.51085 | 153.61033 | 6320 ft | 280 kts | 14° |
| 2026-05-07 07:34 | -28.49230 | 153.61738 | 5930 ft | 281 kts | 13° |
| 2026-05-07 07:34 | -28.47365 | 153.62423 | 5545 ft | 282 kts | 13° |
| 2026-05-07 07:35 | -28.45512 | 153.63104 | 5363 ft | 275 kts | 13° |
| 2026-05-07 07:35 | -28.43722 | 153.63769 | 5277 ft | 265 kts | 14° |
| 2026-05-07 07:35 | -28.42001 | 153.64414 | 5163 ft | 255 kts | 13° |
| 2026-05-07 07:35 | -28.40318 | 153.64770 | 5056 ft | 238 kts | 355° |
| 2026-05-07 07:36 | -28.38728 | 153.64576 | 4859 ft | 226 kts | 339° |
| 2026-05-07 07:36 | -28.37299 | 153.63912 | 4526 ft | 219 kts | 323° |
| 2026-05-07 07:36 | -28.35985 | 153.63033 | 4220 ft | 219 kts | 324° |
| 2026-05-07 07:36 | -28.34669 | 153.62168 | 3913 ft | 218 kts | 325° |
| 2026-05-07 07:37 | -28.33349 | 153.61321 | 3642 ft | 218 kts | 326° |
| 2026-05-07 07:37 | -28.32029 | 153.60484 | 3347 ft | 217 kts | 326° |
| 2026-05-07 07:37 | -28.30735 | 153.59665 | 3055 ft | 216 kts | 326° |
| 2026-05-07 07:37 | -28.29428 | 153.58838 | 2768 ft | 214 kts | 326° |
| 2026-05-07 07:38 | -28.28129 | 153.58013 | 2472 ft | 213 kts | 326° |
| 2026-05-07 07:38 | -28.26840 | 153.57193 | 2188 ft | 212 kts | 326° |
| 2026-05-07 07:38 | -28.25578 | 153.56389 | 1916 ft | 202 kts | 326° |
| 2026-05-07 07:38 | -28.24394 | 153.55642 | 1667 ft | 188 kts | 326° |
| 2026-05-07 07:39 | -28.23305 | 153.54956 | 1404 ft | 165 kts | 327° |
| 2026-05-07 07:39 | -28.22367 | 153.54368 | 1204 ft | 146 kts | 324° |
| 2026-05-07 07:39 | -28.21514 | 153.53826 | 1008 ft | 135 kts | 323° |
| 2026-05-07 07:39 | -28.20692 | 153.53301 | 840 ft | 135 kts | 325° |
| 2026-05-07 07:40 | -28.19878 | 153.52779 | 671 ft | 134 kts | 327° |
| 2026-05-07 07:40 | -28.19078 | 153.52250 | 500 ft | 131 kts | 326° |
| 2026-05-07 07:40 | -28.18274 | 153.51744 | 302 ft | 133 kts | 325° |
| 2026-05-07 07:40 | -28.17482 | 153.51230 | 101 ft | 130 kts | 328° |
| 2026-05-07 07:41 | -28.16724 | 153.50753 | 29 ft | 108 kts | 331° |
| 2026-05-07 07:41 | -28.16220 | 153.50432 | 27 ft | 58 kts | 332° |
| 2026-05-07 07:41 | -28.15933 | 153.50250 | 26 ft | 44 kts | 329° |
| 2026-05-07 07:41 | -28.15710 | 153.50110 | 26 ft | 15 kts | 343° |
| 2026-05-07 07:42 | -28.15617 | 153.50166 | 28 ft | 18 kts | 60° |
| 2026-05-07 07:42 | -28.15651 | 153.50288 | 30 ft | 19 kts | 149° |
| 2026-05-07 07:42 | -28.15776 | 153.50366 | 27 ft | 22 kts | 151° |
| 2026-05-07 07:42 | -28.15922 | 153.50458 | 28 ft | 26 kts | 150° |
| 2026-05-07 07:43 | -28.16086 | 153.50562 | 26 ft | 28 kts | 151° |
| 2026-05-07 07:43 | -28.16267 | 153.50677 | 28 ft | 31 kts | 150° |
| 2026-05-07 07:43 | -28.16454 | 153.50796 | 30 ft | 21 kts | 152° |
| 2026-05-07 07:43 | -28.16489 | 153.50901 | 26 ft | 17 kts | 87° |
| 2026-05-07 07:44 | -28.16580 | 153.50982 | 27 ft | 19 kts | 151° |
| 2026-05-07 07:44 | -28.16700 | 153.51059 | 29 ft | 17 kts | 151° |
| 2026-05-07 07:44 | -28.16712 | 153.51130 | 27 ft | 12 kts | 61° |
| 2026-05-07 07:44 | -28.16696 | 153.51165 | 29 ft | 1 kts | 60° |
| 2026-05-07 07:45 | -28.16695 | 153.51165 | 29 ft | 0 kts | 60° |